Yengema Airport

Jump to: basic info | weather | comments

Related pages: nearby airports | nearby navaids | notams | map

Basic information (top)

Codes: WYE GFYE
Location: lon 8.610470, lat -11.045400, elev 1,300 ft / 396 m msl
Status: medium_airport
Scheduled airline service: yes
Links: Wikipedia Mobile

Weather (top)

Current conditions for Lungi International Airport 128nm (236km) W (rec'd 2014/04/24 01:00Z):

GFLL 240100Z 18005KT 9999 BKN013 FEW027CB 27/24 Q1012 RMK-CB/NE

Airport forecast for Lungi International Airport 128nm (236km) W (rec'd 2014/04/23 18:00Z):

TAF GFLL 231600Z 2318/2424 27009KT 9999 BKN012 FEW027CB 
      BECMG 2300/2402 26008KT 8000 -TSRA BKN011 PROB30 EMPO 2404/2407 13010KT 7000 -RA SCT012 
      BECMG 2408/2410 26012KT 9999 FEW026CB 
     FM241300 30008KT 9999 SCT013

Latest comments (top)

No comments yet for Yengema Airport

More... (top)

See also NOTAMs and nearby airports and navaids, or visit the Yengema Airport page at the main OurAirports website..